Time;durP1;ratioP1;P1;durP2;ratioP2;P2;SDS_P1;SDS_P2;PMS_P1;PMS_P2;Temp;Humidity;BMP_temperature;BMP_pressure;BME280_temperature;BME280_humidity;BME280_pressure;Samples;Min_cycle;Max_cycle;Signal;HPM_P1;HPM_P2
2024/01/24 00:01:42;;;;;;;4.55;1.30;;;12.00;99.90;;;;;;5072116;28;20483;-63
2024/01/24 00:04:08;;;;;;;6.93;1.42;;;12.00;99.90;;;;;;5073241;28;20033;-62
2024/01/24 00:06:35;;;;;;;4.22;1.42;;;12.00;99.90;;;;;;5072023;28;20046;-62
2024/01/24 00:09:01;;;;;;;5.05;1.50;;;12.10;99.90;;;;;;5073317;28;20091;-62
2024/01/24 00:11:27;;;;;;;5.30;1.52;;;12.10;99.90;;;;;;5073385;28;20072;-62
2024/01/24 00:13:52;;;;;;;4.35;1.67;;;12.10;99.90;;;;;;5071786;28;20526;-62
2024/01/24 00:16:18;;;;;;;4.30;1.65;;;12.10;99.90;;;;;;5072770;28;20037;-62
2024/01/24 00:18:43;;;;;;;4.05;1.60;;;12.10;99.90;;;;;;5071959;28;20052;-62
2024/01/24 00:21:09;;;;;;;4.40;1.70;;;12.10;99.90;;;;;;5072887;28;20067;-63
2024/01/24 00:23:35;;;;;;;4.97;1.42;;;12.20;99.90;;;;;;5072742;28;20086;-62
2024/01/24 00:26:00;;;;;;;3.80;1.42;;;12.20;99.90;;;;;;5072957;28;20069;-62
2024/01/24 00:28:26;;;;;;;4.53;1.40;;;12.30;99.90;;;;;;5071124;28;20049;-62
2024/01/24 00:30:52;;;;;;;7.22;1.98;;;12.30;99.90;;;;;;5071384;28;20055;-62
2024/01/24 00:33:18;;;;;;;2.17;1.08;;;12.30;99.90;;;;;;5071188;28;20040;-63
2024/01/24 00:35:43;;;;;;;3.75;1.20;;;12.30;99.90;;;;;;5072640;28;20032;-62
2024/01/24 00:38:09;;;;;;;4.70;1.30;;;12.30;99.90;;;;;;5072863;28;20036;-62
2024/01/24 00:40:35;;;;;;;4.95;1.35;;;12.30;99.90;;;;;;5071440;28;20044;-62
2024/01/24 00:43:01;;;;;;;4.25;1.67;;;12.30;99.90;;;;;;5072799;28;20193;-62
2024/01/24 00:45:27;;;;;;;3.05;1.30;;;12.30;99.90;;;;;;5072193;28;20041;-62
2024/01/24 00:47:52;;;;;;;3.55;1.10;;;12.30;99.90;;;;;;5072437;28;20082;-63
2024/01/24 00:50:18;;;;;;;4.75;1.33;;;12.30;99.90;;;;;;5071130;28;20489;-62
2024/01/24 00:52:44;;;;;;;4.68;1.20;;;12.30;99.90;;;;;;5070945;28;20042;-62
2024/01/24 00:55:10;;;;;;;3.97;1.10;;;12.30;99.90;;;;;;5071022;28;20040;-62
2024/01/24 00:57:36;;;;;;;5.00;2.03;;;12.30;99.90;;;;;;5070869;28;20054;-62
2024/01/24 01:00:01;;;;;;;4.65;1.00;;;12.30;99.90;;;;;;5070921;28;20045;-62
2024/01/24 01:02:28;;;;;;;5.15;0.90;;;12.30;99.90;;;;;;5071911;28;20446;-62
2024/01/24 01:04:54;;;;;;;2.70;1.05;;;12.30;99.90;;;;;;5054191;28;20161;-62
2024/01/24 01:07:19;;;;;;;3.10;1.10;;;12.30;99.90;;;;;;5072015;28;20636;-62
2024/01/24 01:09:45;;;;;;;5.30;1.13;;;12.30;99.90;;;;;;5070447;28;20043;-62
2024/01/24 01:12:10;;;;;;;2.40;0.80;;;12.40;99.90;;;;;;5077156;28;20479;-63
2024/01/24 01:14:37;;;;;;;3.17;0.95;;;12.40;99.90;;;;;;5090637;28;20070;-62
2024/01/24 01:17:03;;;;;;;4.03;1.10;;;12.30;99.90;;;;;;5090938;28;20087;-62
2024/01/24 01:19:28;;;;;;;3.72;1.25;;;12.40;99.90;;;;;;5091990;28;20545;-62
2024/01/24 01:21:54;;;;;;;1.80;0.60;;;12.40;99.90;;;;;;5090686;28;20395;-62
2024/01/24 01:24:20;;;;;;;1.95;0.52;;;12.30;99.90;;;;;;5091872;28;20032;-62
2024/01/24 01:26:45;;;;;;;1.65;0.60;;;12.30;99.90;;;;;;5090187;28;20056;-61
2024/01/24 01:29:11;;;;;;;2.13;0.55;;;12.20;99.90;;;;;;5090204;28;20048;-62
2024/01/24 01:31:36;;;;;;;3.25;1.10;;;12.20;99.90;;;;;;5091868;28;20403;-62
2024/01/24 01:34:04;;;;;;;2.28;0.60;;;12.20;99.90;;;;;;5073213;28;20044;-63
2024/01/24 01:36:29;;;;;;;2.53;0.70;;;12.30;99.90;;;;;;5090172;28;20044;-63
2024/01/24 01:38:55;;;;;;;1.75;0.60;;;12.30;99.90;;;;;;5090401;28;20050;-61
2024/01/24 01:41:20;;;;;;;2.28;0.70;;;12.30;99.90;;;;;;5073123;28;20055;-62
2024/01/24 01:43:46;;;;;;;2.97;0.93;;;12.30;99.90;;;;;;5091169;28;20550;-62
2024/01/24 01:46:21;;;;;;;2.25;0.80;;;12.30;99.90;;;;;;5090333;28;20040;-62
2024/01/24 01:48:49;;;;;;;3.75;0.85;;;12.30;99.90;;;;;;5091201;28;20048;-62
2024/01/24 01:51:19;;;;;;;3.63;0.70;;;12.20;99.90;;;;;;5090217;28;20046;-62
2024/01/24 01:53:46;;;;;;;1.90;0.60;;;12.20;99.90;;;;;;5089915;28;20048;-62
2024/01/24 01:56:15;;;;;;;2.35;0.57;;;12.10;99.90;;;;;;5091245;28;20538;-62
2024/01/24 01:58:41;;;;;;;2.80;1.05;;;12.10;99.90;;;;;;5089703;28;20048;-63
2024/01/24 02:01:08;;;;;;;4.35;0.80;;;12.00;99.90;;;;;;5091497;28;20028;-62
2024/01/24 02:03:33;;;;;;;5.10;1.30;;;12.00;99.90;;;;;;5089812;28;20036;-63
2024/01/24 02:06:00;;;;;;;4.93;0.93;;;12.00;99.90;;;;;;5090159;28;20097;-62
2024/01/24 02:08:26;;;;;;;5.85;1.17;;;12.00;99.90;;;;;;5091052;28;20058;-62
2024/01/24 02:10:52;;;;;;;6.43;0.85;;;11.90;99.90;;;;;;5090728;28;20032;-62
2024/01/24 02:13:19;;;;;;;5.22;1.33;;;12.00;99.90;;;;;;5091377;28;20039;-62
2024/01/24 02:15:45;;;;;;;4.85;1.33;;;12.00;99.90;;;;;;5089445;28;20040;-61
2024/01/24 02:18:11;;;;;;;3.65;1.00;;;12.00;99.90;;;;;;5090196;28;20096;-62
2024/01/24 02:20:37;;;;;;;4.43;1.05;;;11.90;99.90;;;;;;5091025;28;20036;-62
2024/01/24 02:23:03;;;;;;;4.88;1.10;;;11.90;99.90;;;;;;5090349;28;20040;-62
2024/01/24 02:25:29;;;;;;;8.65;1.20;;;11.90;99.90;;;;;;5090917;28;20494;-62
2024/01/24 02:27:54;;;;;;;6.13;1.35;;;11.90;99.90;;;;;;5089385;28;20043;-62
2024/01/24 02:30:20;;;;;;;6.40;1.35;;;11.70;99.90;;;;;;5076586;28;20122;-62
2024/01/24 02:32:45;;;;;;;6.82;1.13;;;11.70;99.90;;;;;;5070569;28;20410;-61
2024/01/24 02:35:11;;;;;;;8.70;1.30;;;11.60;99.90;;;;;;5070762;28;20036;-62
2024/01/24 02:37:38;;;;;;;4.78;1.08;;;11.60;99.90;;;;;;5069405;28;20093;-63
2024/01/24 02:40:04;;;;;;;4.82;1.00;;;11.50;99.90;;;;;;5069285;28;20494;-62
2024/01/24 02:42:30;;;;;;;5.00;1.23;;;11.40;99.90;;;;;;5052155;28;20060;-62
2024/01/24 02:44:56;;;;;;;5.07;1.00;;;11.40;99.90;;;;;;5070320;28;20086;-62
2024/01/24 02:47:22;;;;;;;5.15;0.93;;;11.30;99.90;;;;;;5070801;28;20517;-63
2024/01/24 02:49:48;;;;;;;6.38;1.48;;;11.40;99.90;;;;;;5071140;28;20094;-63
2024/01/24 02:52:14;;;;;;;5.72;1.60;;;11.30;99.90;;;;;;5089673;28;20472;-64
2024/01/24 02:54:43;;;;;;;10.50;1.92;;;11.30;99.90;;;;;;5089680;28;20119;-62
2024/01/24 02:57:08;;;;;;;13.98;2.03;;;11.30;99.90;;;;;;5089122;28;20403;-63
2024/01/24 02:59:34;;;;;;;11.50;2.25;;;11.20;99.90;;;;;;5089341;28;20040;-62
2024/01/24 03:02:00;;;;;;;8.60;1.50;;;11.20;99.90;;;;;;5090391;28;20036;-62
2024/01/24 03:04:26;;;;;;;10.20;1.95;;;11.10;99.90;;;;;;5090561;28;20043;-62
2024/01/24 03:06:51;;;;;;;8.68;2.10;;;11.10;99.90;;;;;;5089284;28;20040;-62
2024/01/24 03:09:17;;;;;;;11.38;1.98;;;11.10;99.90;;;;;;5088998;28;20043;-63
2024/01/24 03:11:42;;;;;;;10.45;2.58;;;11.00;99.90;;;;;;5089352;28;20554;-62
2024/01/24 03:14:09;;;;;;;13.30;2.30;;;11.00;99.90;;;;;;5088956;28;20081;-64
2024/01/24 03:16:35;;;;;;;11.82;2.40;;;11.00;99.90;;;;;;5089124;28;20048;-63
2024/01/24 03:19:02;;;;;;;10.52;2.13;;;11.00;99.90;;;;;;5090357;28;20044;-62
2024/01/24 03:21:27;;;;;;;10.93;2.65;;;11.00;99.90;;;;;;5090493;28;20040;-63
2024/01/24 03:23:53;;;;;;;13.27;2.22;;;10.90;99.90;;;;;;5088826;28;20123;-62
2024/01/24 03:26:19;;;;;;;10.18;2.00;;;11.00;99.90;;;;;;5088960;28;20044;-62
2024/01/24 03:28:44;;;;;;;12.35;2.63;;;10.90;99.90;;;;;;5088599;28;20411;-62
2024/01/24 03:31:10;;;;;;;9.23;2.17;;;10.90;99.90;;;;;;5089030;28;20048;-63
2024/01/24 03:33:37;;;;;;;13.98;2.38;;;10.90;99.90;;;;;;5089927;28;20181;-62
2024/01/24 03:36:03;;;;;;;13.50;2.60;;;10.90;99.90;;;;;;5092525;28;20040;-62
2024/01/24 03:38:29;;;;;;;10.15;2.30;;;10.80;99.90;;;;;;5093949;28;20050;-62
2024/01/24 03:40:55;;;;;;;10.98;2.60;;;10.80;99.90;;;;;;5092710;28;20442;-62
2024/01/24 03:43:20;;;;;;;10.30;2.47;;;10.80;99.90;;;;;;5094004;28;20078;-63
2024/01/24 03:45:46;;;;;;;12.10;2.60;;;10.90;99.90;;;;;;5094162;28;20040;-63
2024/01/24 03:48:12;;;;;;;17.48;2.97;;;10.90;99.90;;;;;;5092591;28;20075;-63
2024/01/24 03:50:38;;;;;;;17.08;3.00;;;10.90;99.90;;;;;;5092481;28;20040;-63
2024/01/24 03:53:04;;;;;;;16.70;3.05;;;10.90;99.90;;;;;;5093395;28;20040;-63
2024/01/24 03:55:29;;;;;;;18.02;3.70;;;10.80;99.90;;;;;;5094021;28;20044;-63
2024/01/24 03:57:55;;;;;;;13.98;2.53;;;10.80;99.90;;;;;;5093837;28;20459;-62
2024/01/24 04:00:22;;;;;;;16.50;3.15;;;10.90;99.90;;;;;;5092310;28;20528;-62
2024/01/24 04:02:48;;;;;;;18.50;3.63;;;10.90;99.90;;;;;;5093542;28;20048;-63
2024/01/24 04:05:14;;;;;;;17.88;3.30;;;10.90;99.90;;;;;;5090561;28;20093;-63
2024/01/24 04:07:40;;;;;;;18.00;2.90;;;10.90;99.90;;;;;;5054668;28;20059;-63
2024/01/24 04:10:06;;;;;;;15.43;2.85;;;11.00;99.90;;;;;;5072970;28;20454;-63
2024/01/24 04:12:33;;;;;;;19.83;3.92;;;10.90;99.90;;;;;;5073252;28;20399;-62
2024/01/24 04:14:58;;;;;;;20.63;3.35;;;10.90;99.90;;;;;;5080686;28;20032;-63
2024/01/24 04:17:24;;;;;;;20.80;3.70;;;10.90;99.90;;;;;;5093047;28;20055;-62
2024/01/24 04:19:50;;;;;;;16.83;3.50;;;11.00;99.90;;;;;;5091933;28;20032;-63
2024/01/24 04:22:16;;;;;;;19.50;3.80;;;11.00;99.90;;;;;;5093500;28;20040;-63
2024/01/24 04:24:42;;;;;;;16.05;3.42;;;11.00;99.90;;;;;;5093225;28;20043;-63
2024/01/24 04:27:08;;;;;;;16.08;3.42;;;11.00;99.90;;;;;;5092859;28;20036;-63
2024/01/24 04:29:33;;;;;;;18.90;3.90;;;11.00;99.90;;;;;;5091660;28;20056;-63
2024/01/24 04:31:59;;;;;;;16.77;3.33;;;11.10;99.90;;;;;;5092972;28;20051;-62
2024/01/24 04:34:25;;;;;;;17.92;3.10;;;11.00;99.90;;;;;;5091375;28;20450;-63
2024/01/24 04:36:54;;;;;;;16.13;3.05;;;11.10;99.90;;;;;;5091540;28;20677;-63
2024/01/24 04:39:20;;;;;;;14.77;3.75;;;11.10;99.90;;;;;;5092601;28;20040;-63
2024/01/24 04:41:46;;;;;;;17.08;3.35;;;11.00;99.90;;;;;;5093075;28;20071;-63
2024/01/24 04:44:11;;;;;;;18.85;4.00;;;11.10;99.90;;;;;;5091277;28;20500;-63
2024/01/24 04:46:37;;;;;;;18.85;3.67;;;11.10;99.90;;;;;;5092080;28;20161;-63
2024/01/24 04:49:03;;;;;;;21.60;4.30;;;11.00;99.90;;;;;;5091274;28;20040;-63
2024/01/24 04:51:28;;;;;;;19.77;4.07;;;11.00;99.90;;;;;;5090945;28;20096;-63
2024/01/24 04:53:54;;;;;;;21.13;4.72;;;11.00;99.90;;;;;;5091288;28;20036;-63
2024/01/24 04:56:20;;;;;;;23.27;4.47;;;11.00;99.90;;;;;;5092584;28;20471;-63
2024/01/24 04:58:45;;;;;;;25.38;4.45;;;11.00;99.90;;;;;;5074387;28;20043;-63
2024/01/24 05:01:13;;;;;;;21.63;4.90;;;10.90;99.90;;;;;;5092414;28;20126;-63
2024/01/24 05:03:39;;;;;;;23.10;4.47;;;10.90;99.90;;;;;;5092096;28;20405;-64
2024/01/24 05:06:05;;;;;;;23.55;5.00;;;10.90;99.90;;;;;;5091334;28;20083;-63
2024/01/24 05:08:31;;;;;;;23.17;4.85;;;10.90;99.90;;;;;;5090611;28;20334;-63
2024/01/24 05:10:57;;;;;;;22.77;4.78;;;10.90;99.90;;;;;;5091184;28;20115;-62
2024/01/24 05:13:22;;;;;;;24.65;4.60;;;10.90;99.90;;;;;;5090596;28;20078;-63
2024/01/24 05:15:49;;;;;;;28.17;5.07;;;10.80;99.90;;;;;;5091016;28;20050;-63
2024/01/24 05:18:15;;;;;;;22.42;4.70;;;10.80;99.90;;;;;;5092105;28;20546;-63
2024/01/24 05:20:40;;;;;;;25.88;5.65;;;10.70;99.90;;;;;;5091690;28;20047;-63
2024/01/24 05:23:07;;;;;;;23.08;4.95;;;10.60;99.90;;;;;;5091077;28;20059;-63
2024/01/24 05:25:33;;;;;;;27.23;4.90;;;10.60;99.90;;;;;;5091927;28;20036;-63
2024/01/24 05:28:00;;;;;;;20.80;4.40;;;10.50;99.90;;;;;;5090769;28;20075;-63
2024/01/24 05:30:25;;;;;;;26.58;5.40;;;10.40;99.90;;;;;;5090499;28;20112;-62
2024/01/24 05:32:55;;;;;;;30.80;5.90;;;10.40;99.90;;;;;;5086271;28;20040;-63
2024/01/24 05:35:21;;;;;;;21.75;5.10;;;10.40;99.90;;;;;;5071902;28;20035;-63
2024/01/24 05:37:46;;;;;;;21.67;4.47;;;10.30;99.90;;;;;;5070478;28;20036;-63
2024/01/24 05:40:12;;;;;;;22.75;4.55;;;10.30;99.90;;;;;;5070223;28;20161;-63
2024/01/24 05:42:38;;;;;;;26.00;5.30;;;10.20;99.90;;;;;;5070201;28;20487;-62
2024/01/24 05:45:05;;;;;;;30.92;5.55;;;10.20;99.90;;;;;;5071307;28;20043;-63
2024/01/24 05:47:31;;;;;;;27.95;6.47;;;10.20;99.90;;;;;;5070939;28;20403;-63
2024/01/24 05:49:58;;;;;;;23.95;4.90;;;10.10;99.90;;;;;;5069916;28;20037;-62
2024/01/24 05:52:24;;;;;;;28.75;5.20;;;10.10;99.90;;;;;;5069947;28;20075;-63
2024/01/24 05:54:49;;;;;;;35.88;6.43;;;10.10;99.90;;;;;;5071109;28;20056;-62
2024/01/24 05:57:15;;;;;;;32.92;7.03;;;10.10;99.90;;;;;;5069164;28;20068;-63
2024/01/24 05:59:41;;;;;;;30.00;5.80;;;10.00;99.90;;;;;;5070970;28;20051;-63
2024/01/24 06:02:06;;;;;;;33.83;7.18;;;10.00;99.90;;;;;;5069759;28;20123;-62
2024/01/24 06:04:32;;;;;;;30.65;5.78;;;10.00;99.90;;;;;;5069467;28;20040;-63
2024/01/24 06:07:00;;;;;;;25.83;6.30;;;10.10;99.90;;;;;;5069679;28;20032;-62
2024/01/24 06:09:27;;;;;;;29.42;6.00;;;10.10;99.90;;;;;;5069272;28;20408;-63
2024/01/24 06:11:53;;;;;;;32.25;5.97;;;10.10;99.90;;;;;;5069565;28;20040;-62
2024/01/24 06:14:18;;;;;;;33.50;5.93;;;10.00;99.90;;;;;;5070946;28;20537;-62
2024/01/24 06:16:44;;;;;;;32.08;7.57;;;10.00;99.90;;;;;;5069216;28;20045;-63
2024/01/24 06:19:10;;;;;;;34.80;7.53;;;10.00;99.90;;;;;;5069761;28;20083;-62
2024/01/24 06:21:35;;;;;;;33.45;6.70;;;10.10;99.90;;;;;;5070698;28;20055;-63
2024/01/24 06:24:01;;;;;;;30.45;6.38;;;10.10;99.90;;;;;;5070698;28;20040;-63
2024/01/24 06:26:27;;;;;;;34.83;6.57;;;10.10;99.90;;;;;;5069676;28;20040;-62
2024/01/24 06:28:52;;;;;;;31.70;5.75;;;10.10;99.90;;;;;;5070536;28;20085;-63
2024/01/24 06:31:18;;;;;;;28.77;5.88;;;10.00;99.90;;;;;;5069660;28;20048;-63
2024/01/24 06:33:43;;;;;;;37.92;6.28;;;10.00;99.90;;;;;;5069053;28;20048;-62
2024/01/24 06:36:09;;;;;;;30.65;6.72;;;10.00;99.90;;;;;;5070681;28;20029;-63
2024/01/24 06:38:35;;;;;;;31.00;6.70;;;10.00;99.90;;;;;;5070615;28;20128;-63
2024/01/24 06:41:00;;;;;;;38.20;8.00;;;10.00;99.90;;;;;;5068989;28;20040;-63
2024/01/24 06:43:26;;;;;;;33.92;5.95;;;9.90;99.90;;;;;;5069667;28;20033;-63
2024/01/24 06:45:52;;;;;;;33.10;6.93;;;10.00;99.90;;;;;;5068955;28;20048;-63
2024/01/24 06:48:18;;;;;;;38.65;8.02;;;10.00;99.90;;;;;;5069129;28;20415;-63
2024/01/24 06:50:44;;;;;;;36.20;7.53;;;10.00;99.90;;;;;;5070413;28;20072;-63
2024/01/24 06:53:14;;;;;;;34.42;5.93;;;10.00;99.90;;;;;;5069082;28;20475;-63
2024/01/24 06:55:39;;;;;;;32.80;6.22;;;10.00;99.90;;;;;;5070440;28;20044;-63
2024/01/24 06:58:05;;;;;;;32.40;6.50;;;10.00;99.90;;;;;;5070241;28;20037;-63
2024/01/24 07:00:32;;;;;;;36.88;7.13;;;10.00;99.90;;;;;;5052510;28;20097;-62
2024/01/24 07:02:59;;;;;;;31.73;6.75;;;10.00;99.90;;;;;;5068582;28;20136;-62
2024/01/24 07:05:25;;;;;;;28.52;5.95;;;10.00;99.90;;;;;;5070681;28;20454;-63
2024/01/24 07:07:50;;;;;;;32.03;6.18;;;10.00;99.90;;;;;;5068701;28;20124;-63
2024/01/24 07:10:16;;;;;;;35.42;7.35;;;10.10;99.90;;;;;;5072705;28;20028;-62
2024/01/24 07:12:47;;;;;;;36.85;7.05;;;10.10;99.90;;;;;;5073074;28;20552;-63
2024/01/24 07:15:17;;;;;;;29.87;6.80;;;10.10;99.90;;;;;;5072814;28;20399;-62
2024/01/24 07:17:43;;;;;;;33.83;6.97;;;10.10;99.90;;;;;;5073228;28;20499;-62
2024/01/24 07:20:09;;;;;;;32.33;6.75;;;10.10;99.90;;;;;;5073850;28;20055;-63
2024/01/24 07:22:34;;;;;;;36.17;7.32;;;10.10;99.90;;;;;;5074080;28;20028;-63
2024/01/24 07:25:01;;;;;;;35.13;6.43;;;10.10;99.90;;;;;;5072525;28;20041;-63
2024/01/24 07:27:26;;;;;;;39.85;6.40;;;10.10;99.90;;;;;;5072796;28;20123;-63
2024/01/24 07:29:52;;;;;;;30.35;6.55;;;10.10;99.90;;;;;;5073632;28;20136;-62
2024/01/24 07:32:18;;;;;;;34.50;7.05;;;10.10;99.90;;;;;;5072804;28;20035;-62
2024/01/24 07:34:43;;;;;;;27.83;5.28;;;10.10;99.90;;;;;;5072689;28;20048;-63
2024/01/24 07:37:09;;;;;;;33.58;5.65;;;10.10;99.90;;;;;;5073681;28;20037;-63
2024/01/24 07:39:35;;;;;;;35.05;5.63;;;10.00;99.90;;;;;;5073715;28;20041;-62
2024/01/24 07:42:00;;;;;;;32.17;7.40;;;10.00;99.90;;;;;;5090278;28;20044;-62
2024/01/24 07:44:26;;;;;;;43.97;8.98;;;10.00;99.90;;;;;;5092980;28;20200;-63
2024/01/24 07:46:53;;;;;;;30.67;6.93;;;10.00;99.90;;;;;;5092273;28;20052;-62
2024/01/24 07:49:18;;;;;;;32.75;6.05;;;10.00;99.90;;;;;;5092273;28;20039;-63
2024/01/24 07:51:46;;;;;;;31.17;6.65;;;9.90;99.90;;;;;;5093883;28;20386;-62
2024/01/24 07:54:12;;;;;;;31.10;6.30;;;9.90;99.90;;;;;;5092384;28;20119;-63
2024/01/24 07:56:39;;;;;;;32.92;6.80;;;9.90;99.90;;;;;;5092611;28;20040;-62
2024/01/24 07:59:05;;;;;;;40.70;8.38;;;9.80;99.90;;;;;;5091942;28;20040;-63
2024/01/24 08:01:31;;;;;;;33.38;7.50;;;9.80;99.90;;;;;;5093951;28;20460;-64
2024/01/24 08:03:58;;;;;;;34.55;6.72;;;9.80;99.90;;;;;;5092383;28;20123;-62
2024/01/24 08:06:24;;;;;;;40.03;7.38;;;9.80;99.90;;;;;;5092218;28;20047;-63
2024/01/24 08:08:50;;;;;;;34.65;6.50;;;9.90;99.90;;;;;;5093452;28;20138;-63
2024/01/24 08:11:16;;;;;;;29.60;5.63;;;9.80;99.90;;;;;;5093256;28;20048;-63
2024/01/24 08:13:44;;;;;;;32.00;7.25;;;9.80;99.90;;;;;;5093229;28;20091;-62
2024/01/24 08:16:09;;;;;;;35.95;7.68;;;9.80;99.90;;;;;;5093183;28;20040;-63
2024/01/24 08:18:35;;;;;;;35.45;6.85;;;9.80;99.90;;;;;;5093435;28;20082;-62
2024/01/24 08:21:01;;;;;;;33.92;7.30;;;9.80;99.90;;;;;;5090952;28;20120;-63
2024/01/24 08:23:27;;;;;;;33.63;7.32;;;9.70;99.90;;;;;;5091635;28;20040;-62
2024/01/24 08:25:52;;;;;;;37.08;7.40;;;9.80;99.90;;;;;;5091780;28;20109;-62
2024/01/24 08:28:18;;;;;;;32.65;7.35;;;9.70;99.90;;;;;;5091147;28;20044;-63
2024/01/24 08:30:45;;;;;;;35.70;7.32;;;9.80;99.90;;;;;;5091985;28;20040;-62
2024/01/24 08:33:11;;;;;;;39.60;8.00;;;9.80;99.90;;;;;;5091243;28;20083;-63
2024/01/24 08:35:36;;;;;;;33.72;7.30;;;9.80;99.90;;;;;;5091656;28;20036;-62
2024/01/24 08:38:03;;;;;;;39.30;8.25;;;9.80;99.90;;;;;;5091847;28;20546;-63
2024/01/24 08:40:28;;;;;;;39.63;7.88;;;9.80;99.90;;;;;;5091390;28;20043;-62
2024/01/24 08:42:54;;;;;;;35.65;7.50;;;9.80;99.90;;;;;;5091046;28;20567;-63
2024/01/24 08:45:20;;;;;;;37.38;8.30;;;9.80;99.90;;;;;;5092912;28;20036;-63
2024/01/24 08:47:46;;;;;;;36.90;7.57;;;9.80;99.90;;;;;;5091462;28;20427;-63
2024/01/24 08:50:11;;;;;;;40.25;7.00;;;9.80;99.90;;;;;;5091113;28;20046;-62
2024/01/24 08:52:38;;;;;;;38.60;7.30;;;9.80;99.90;;;;;;5091361;28;20054;-62
2024/01/24 08:55:08;;;;;;;34.88;6.57;;;9.80;99.90;;;;;;5092680;28;20078;-62
2024/01/24 08:57:33;;;;;;;35.08;7.38;;;9.80;99.90;;;;;;5091228;28;20076;-62
2024/01/24 08:59:59;;;;;;;40.45;7.88;;;9.80;99.90;;;;;;5091117;28;20079;-63
2024/01/24 09:02:26;;;;;;;34.83;7.07;;;9.80;99.90;;;;;;5090849;28;20444;-63
2024/01/24 09:04:52;;;;;;;35.50;7.72;;;9.80;99.90;;;;;;5092491;28;20068;-63
2024/01/24 09:07:22;;;;;;;33.55;7.13;;;9.70;99.90;;;;;;5090846;28;20082;-63
2024/01/24 09:09:51;;;;;;;33.00;6.53;;;9.70;99.90;;;;;;5092192;28;20036;-64
2024/01/24 09:12:17;;;;;;;39.25;6.78;;;9.70;99.90;;;;;;5090593;28;20036;-62
2024/01/24 09:14:44;;;;;;;37.97;7.55;;;9.80;99.90;;;;;;5090788;28;20036;-62
2024/01/24 09:17:13;;;;;;;30.38;6.68;;;9.80;99.90;;;;;;5092170;28;20379;-62
2024/01/24 09:19:42;;;;;;;35.65;7.05;;;9.80;99.90;;;;;;5078955;28;20076;-63
2024/01/24 09:22:09;;;;;;;36.67;8.27;;;9.80;99.90;;;;;;5071834;28;20078;-63
2024/01/24 09:24:35;;;;;;;32.05;6.60;;;9.80;99.90;;;;;;5070480;28;20086;-63
2024/01/24 09:27:02;;;;;;;41.10;6.25;;;9.80;99.90;;;;;;5071658;28;20036;-63
2024/01/24 09:29:28;;;;;;;30.08;6.90;;;9.70;99.90;;;;;;5069927;28;20499;-62
2024/01/24 09:31:54;;;;;;;32.40;6.25;;;9.80;99.90;;;;;;5053676;28;20071;-63
2024/01/24 09:34:19;;;;;;;37.53;7.82;;;9.80;99.90;;;;;;5071496;28;20515;-63
2024/01/24 09:36:45;;;;;;;33.75;6.78;;;9.80;99.90;;;;;;5062026;28;20533;-64
2024/01/24 09:39:11;;;;;;;31.92;6.68;;;9.80;99.90;;;;;;5070107;28;20067;-63
2024/01/24 09:41:43;;;;;;;28.48;6.25;;;9.80;99.90;;;;;;5071489;28;20102;-62
2024/01/24 09:44:11;;;;;;;36.20;6.50;;;9.80;99.90;;;;;;5070065;28;20056;-62
2024/01/24 09:46:39;;;;;;;31.30;6.80;;;9.80;99.90;;;;;;5071129;28;20041;-63
2024/01/24 09:49:06;;;;;;;39.30;7.55;;;9.90;99.90;;;;;;5053403;28;20066;-62
2024/01/24 09:51:36;;;;;;;37.65;6.97;;;9.90;99.90;;;;;;5069570;28;20048;-62
2024/01/24 09:54:07;;;;;;;37.80;7.30;;;10.00;99.90;;;;;;5052846;28;20074;-63
2024/01/24 09:56:36;;;;;;;30.80;6.95;;;10.00;99.90;;;;;;5071099;28;20045;-63
2024/01/24 09:59:07;;;;;;;34.17;6.25;;;10.10;99.90;;;;;;5069817;28;20045;-63
2024/01/24 10:01:38;;;;;;;34.67;7.15;;;10.10;99.90;;;;;;5070806;28;20107;-63
2024/01/24 10:04:03;;;;;;;34.38;7.40;;;10.20;99.90;;;;;;5069640;28;20079;-63
2024/01/24 10:06:29;;;;;;;31.98;6.88;;;10.20;99.90;;;;;;5069413;28;20583;-62
2024/01/24 10:08:58;;;;;;;35.60;7.38;;;10.20;99.90;;;;;;5071090;28;20028;-62
2024/01/24 10:11:25;;;;;;;34.53;7.20;;;10.30;99.90;;;;;;5069891;28;20120;-63
2024/01/24 10:13:55;;;;;;;31.00;6.30;;;10.40;99.90;;;;;;5069569;28;20484;-63
2024/01/24 10:16:20;;;;;;;33.72;7.38;;;10.40;99.90;;;;;;5069666;28;20068;-62
2024/01/24 10:18:47;;;;;;;31.63;6.40;;;10.50;99.90;;;;;;5070423;28;20130;-63
2024/01/24 10:21:13;;;;;;;36.38;6.35;;;10.50;99.90;;;;;;5053094;28;20033;-63
2024/01/24 10:23:41;;;;;;;29.77;6.60;;;10.60;99.90;;;;;;5061575;28;20056;-63
2024/01/24 10:26:08;;;;;;;26.35;6.30;;;10.60;99.90;;;;;;5072998;28;20399;-62
2024/01/24 10:28:34;;;;;;;30.52;6.72;;;10.60;99.90;;;;;;5090411;28;20056;-62
2024/01/24 10:31:02;;;;;;;33.00;6.70;;;10.60;99.90;;;;;;5089582;28;20043;-62
2024/01/24 10:33:32;;;;;;;30.30;6.25;;;10.70;99.90;;;;;;5089770;28;20483;-63
2024/01/24 10:35:59;;;;;;;34.92;6.28;;;10.80;99.90;;;;;;5089289;28;20043;-62
2024/01/24 10:38:31;;;;;;;28.17;5.82;;;10.80;99.90;;;;;;5089218;28;20052;-63
2024/01/24 10:41:01;;;;;;;35.10;7.57;;;10.80;99.90;;;;;;5089624;28;20521;-62
2024/01/24 10:43:28;;;;;;;30.02;6.50;;;10.80;99.90;;;;;;5088531;28;20062;-62
2024/01/24 10:45:55;;;;;;;33.20;7.00;;;10.80;99.90;;;;;;5090463;28;20462;-63
2024/01/24 10:48:21;;;;;;;35.10;7.45;;;10.80;99.90;;;;;;5089342;28;20071;-63
2024/01/24 10:50:48;;;;;;;28.13;5.78;;;10.80;99.90;;;;;;5089483;28;20086;-63
2024/01/24 10:53:14;;;;;;;28.77;5.93;;;10.80;99.90;;;;;;5089472;28;20032;-63
2024/01/24 10:55:41;;;;;;;28.50;5.72;;;10.80;99.90;;;;;;5089334;28;20100;-62
2024/01/24 10:58:11;;;;;;;31.05;6.03;;;10.90;99.90;;;;;;5090706;28;20040;-63
2024/01/24 11:00:39;;;;;;;28.90;6.18;;;10.90;99.90;;;;;;5090510;28;20067;-63
2024/01/24 11:03:07;;;;;;;25.08;5.68;;;11.00;99.90;;;;;;5089333;28;20055;-63
2024/01/24 11:05:39;;;;;;;28.30;6.18;;;10.90;99.90;;;;;;5090677;28;20058;-62
2024/01/24 11:08:26;;;;;;;27.27;6.57;;;11.00;99.90;;;;;;5089187;28;20040;-63
2024/01/24 11:10:54;;;;;;;28.65;6.10;;;11.00;99.90;;;;;;5070902;28;20048;-63
2024/01/24 11:13:22;;;;;;;30.15;6.13;;;10.90;99.90;;;;;;5070639;28;20475;-63
2024/01/24 11:15:48;;;;;;;31.80;6.18;;;10.90;99.90;;;;;;5051720;28;20045;-62
2024/01/24 11:18:21;;;;;;;27.88;6.35;;;10.90;99.90;;;;;;5068832;28;20085;-63
2024/01/24 11:21:00;;;;;;;26.60;5.05;;;10.90;99.90;;;;;;5070107;28;20048;-63
2024/01/24 11:23:41;;;;;;;26.13;5.13;;;10.90;99.90;;;;;;5069116;28;20495;-62
2024/01/24 11:26:12;;;;;;;34.10;6.68;;;10.90;99.90;;;;;;5052016;28;20048;-63
2024/01/24 11:28:38;;;;;;;27.35;5.63;;;10.90;99.90;;;;;;5068845;28;20052;-63
2024/01/24 11:31:04;;;;;;;22.80;5.03;;;10.90;99.90;;;;;;5052159;28;20055;-62
2024/01/24 11:33:30;;;;;;;28.85;5.50;;;11.00;99.90;;;;;;5068933;28;20064;-62
2024/01/24 11:35:56;;;;;;;24.92;5.43;;;10.90;99.90;;;;;;5069618;28;20037;-63
2024/01/24 11:38:26;;;;;;;25.45;6.10;;;10.90;99.90;;;;;;5068804;28;20053;-63
2024/01/24 11:41:15;;;;;;;24.80;5.18;;;10.80;99.90;;;;;;5068512;28;20057;-63
2024/01/24 11:43:44;;;;;;;22.40;5.25;;;10.90;99.90;;;;;;5070017;28;20273;-63
2024/01/24 11:46:11;;;;;;;28.38;5.82;;;11.00;99.90;;;;;;5079468;28;20044;-62
2024/01/24 11:48:37;;;;;;;24.52;5.30;;;11.00;99.90;;;;;;5089918;28;20508;-63
2024/01/24 11:51:07;;;;;;;25.45;5.18;;;11.10;99.90;;;;;;5088350;28;20464;-63
2024/01/24 11:53:33;;;;;;;28.52;5.53;;;11.30;99.90;;;;;;5090437;28;20043;-63
2024/01/24 11:56:01;;;;;;;23.10;5.20;;;11.30;99.90;;;;;;5091393;28;20043;-63
2024/01/24 11:58:28;;;;;;;26.25;4.85;;;11.30;99.90;;;;;;5093746;28;20043;-63
2024/01/24 12:01:01;;;;;;;25.35;5.10;;;11.30;99.90;;;;;;5093570;28;20043;-62
2024/01/24 12:03:27;;;;;;;25.02;4.80;;;11.20;99.90;;;;;;5093767;28;20071;-62
2024/01/24 12:05:53;;;;;;;24.65;5.63;;;11.50;99.90;;;;;;5093659;28;20036;-62
2024/01/24 12:08:19;;;;;;;25.77;5.88;;;11.60;99.90;;;;;;5091773;28;20051;-62
2024/01/24 12:10:45;;;;;;;21.25;4.07;;;11.80;99.90;;;;;;5093668;28;20082;-63
2024/01/24 12:13:12;;;;;;;19.95;4.30;;;11.90;99.90;;;;;;5091854;28;20121;-63
2024/01/24 12:15:38;;;;;;;22.63;4.90;;;11.60;99.90;;;;;;5093755;28;20395;-62
2024/01/24 12:18:05;;;;;;;22.10;5.25;;;11.60;99.90;;;;;;5091741;28;20047;-63
2024/01/24 12:20:33;;;;;;;26.48;5.15;;;11.50;99.90;;;;;;5093259;28;20036;-63
2024/01/24 12:22:59;;;;;;;25.38;4.82;;;11.40;99.90;;;;;;5091976;28;20140;-62
2024/01/24 12:25:26;;;;;;;21.08;4.18;;;11.30;99.90;;;;;;5091649;28;20486;-62
2024/01/24 12:27:52;;;;;;;24.42;4.40;;;11.30;99.90;;;;;;5091451;28;20048;-63
2024/01/24 12:30:19;;;;;;;26.17;4.90;;;11.50;99.90;;;;;;5092570;28;20055;-63
2024/01/24 12:32:45;;;;;;;24.15;5.57;;;11.60;99.90;;;;;;5091860;28;20043;-63
2024/01/24 12:35:14;;;;;;;25.25;5.60;;;11.50;99.90;;;;;;5091454;28;20044;-63
2024/01/24 12:37:41;;;;;;;23.63;4.78;;;11.40;99.90;;;;;;5091657;28;20081;-63